Thursday, February 22, 2018, 5:25 AM EST
Back to Local

KRKD, Rockland, Knox County Regional Airport

Location: Owls Head, ME, United States Lat: 44.067
Local Time: 5:25 AM EST (10:25 GMT) Lon: -69.1
Time Zone: US/Eastern Elev: 55 ft

Show me the last for .
Show Decoded

2018-02-22 04:56 METAR KRKD 220956Z AUTO VRB06KT 10SM OVC110 02/M10 A3056 RMK AO2 SLP352
                 T00171100 FZRANO =
2018-02-22 03:56 METAR KRKD 220856Z AUTO VRB06KT 10SM CLR 02/M09 A3053 RMK AO2 SLP341 T00221094
                 51029 FZRANO =
2018-02-22 02:56 METAR KRKD 220756Z AUTO 35008KT 10SM SCT095 BKN120 03/M07 A3050 RMK AO2 SLP332
                 T00331067 =
2018-02-22 01:56 METAR KRKD 220656Z AUTO VRB05KT 10SM OVC100 04/M05 A3048 RMK AO2 SLP323
                 T00441050 =
2018-02-22 00:56 METAR KRKD 220556Z AUTO 33006G14KT 10SM OVC095 06/M04 A3045 RMK AO2 PRESRR
                 SLP312 T00611044 10150 20061 53059 =
2018-02-21 23:56 METAR KRKD 220456Z AUTO VRB06G18KT 10SM OVC090 07/M03 A3038 RMK AO2 SLP291
                 T00721033 401560022 =
2018-02-21 22:56 METAR KRKD 220356Z AUTO 32009G21KT 280V360 10SM SCT090 08/M02 A3033 RMK AO2
                 SLP272 T00831017 =
2018-02-21 21:56 METAR KRKD 220256Z AUTO VRB06KT 10SM OVC090 11/02 A3027 RMK AO2 SLP252 T01060022
                 51045 =
2018-02-21 20:56 METAR KRKD 220156Z AUTO 29010G17KT 10SM OVC085 12/03 A3024 RMK AO2 SLP241
                 T01220033 =
2018-02-21 19:56 METAR KRKD 220056Z AUTO 31008G16KT 10SM OVC070 13/06 A3019 RMK AO2 SLP226
                 T01330056 =
2018-02-21 18:56 METAR KRKD 212356Z AUTO 31009G19KT 10SM OVC048 15/10 A3014 RMK AO2 SLP207
                 T01500100 10156 20089 53051 =
2018-02-21 17:56 METAR KRKD 212256Z AUTO 29005KT 10SM BKN050 OVC060 12/11 A3009 RMK AO2 SLP192
                 T01220106 =
2018-02-21 16:56 METAR KRKD 212156Z AUTO 24014KT 10SM CLR 13/11 A3000 RMK AO2 SLP162 T01330106 =
2018-02-21 15:56 METAR KRKD 212056Z AUTO 22015G19KT 10SM CLR 13/11 A2999 RMK AO2 SLP156 T01330111
                 56015 =
2018-02-21 14:56 METAR KRKD 211956Z AUTO 22012KT 10SM CLR 12/12 A2999 RMK AO2 SLP158 T01220117 =
2018-02-21 14:40 METAR KRKD 211940Z AUTO 23010G17KT 10SM FEW007 12/11 A3000 RMK AO2 =
2018-02-21 13:56 METAR KRKD 211856Z AUTO 25008KT 10SM OVC005 11/11 A3001 RMK AO2 SLP164 T01110106
                 =
2018-02-21 13:38 METAR KRKD 211838Z AUTO 25008KT 10SM OVC005 11/11 A3001 RMK AO2 =
2018-02-21 12:56 METAR KRKD 211756Z AUTO 23006KT 9SM OVC003 09/09 A3003 RMK AO2 SLP171 T00890089
                 10089 20028 58030 =
2018-02-21 12:11 METAR KRKD 211711Z AUTO 25010KT 7SM OVC003 08/08 A3005 RMK AO2 =
2018-02-21 11:56 METAR KRKD 211656Z AUTO 22008KT 4SM BR OVC001 08/08 A3006 RMK AO2 SLP181
                 T00780078 =
2018-02-21 11:48 METAR KRKD 211648Z AUTO 23008KT 3SM BR OVC001 08/08 A3007 RMK AO2 =
2018-02-21 11:35 METAR KRKD 211635Z AUTO 24009KT 1 1/4SM BR OVC001 07/07 A3008 RMK AO2 =
2018-02-21 11:19 METAR KRKD 211619Z AUTO 25008KT 3/4SM BR OVC001 07/07 A3008 RMK AO2 =
2018-02-21 10:56 METAR KRKD 211556Z AUTO 24009KT 1/2SM FG OVC001 07/07 A3010 RMK AO2 SLP195
                 T00720072 =
2018-02-21 09:56 METAR KRKD 211456Z AUTO 24006KT 1/4SM FG OVC001 06/06 A3012 RMK AO2 SLP201
                 T00610061 58015 =
2018-02-21 08:56 METAR KRKD 211356Z AUTO 00000KT 1/4SM FG OVC001 04/04 A3014 RMK AO2 SLP208
                 T00390039 =
2018-02-21 08:26 METAR KRKD 211326Z AUTO 23004KT 1/4SM FG OVC001 03/03 A3015 RMK AO2 =
2018-02-21 07:56 METAR KRKD 211256Z AUTO 20004KT 1/2SM FG OVC001 03/03 A3016 RMK AO2 SLP213
                 T00280028 =
2018-02-21 06:56 METAR KRKD 211156Z AUTO 21003KT 1/4SM FG OVC001 03/02 A3016 RMK AO2 SLP216 70011
                 T00280022 10033 20022 58016 =
2018-02-21 05:56 METAR KRKD 211056Z AUTO 23003KT 1/4SM FG OVC001 03/03 A3018 RMK AO2 SLP221
                 T00280028 =
2018-02-21 05:44 METAR KRKD 211044Z AUTO 22004KT 1/2SM FG OVC001 02/02 A3018 RMK AO2 FZRANO =

Support USWX by starting your Amazon purchase here.